Ana Sayfa
METAR-TAF:

METAR-TAF

Havaalanları :

A.L. Mangham Jr. Regional Airport

Nacogdoches, Teksas, Amerika Birleşik Devletleri

Enlem: 31-35N, Boylam: 094-43W, yükseklik: 108 m

Güncel hava durumu gözlemi

Rapor saat 06:56 UTC de 49 dakika önce yapıldı.
Sakin rüzgar
Sıcaklık 2°C
Nem 87%
Basınç 1027 hPa
Görüş mesafesi: 16.1 km
Açık gökyüzü

METAR: KOCH 290656Z AUTO 00000KT 10SM CLR 02/00 A3033 RMK AO2 SLP277 T00220000 FZRANO

Saat: 01:45 (07:45 UTC)


TAF: eksik

4.000'den fazla havaalanı için hava durumu gözlemleri ve tahminleri (METAR ve TAF raporları).

Kullanılabilir istasyonlar harita üzerinde sarı ve kırmızı noktalarla gösterilir.

İstasyonun adını görmek için fareyi noktanın üzerinde gezdirin.

Sonrasında hava gözlem ve tahminlerini görmek için tıklayın.

Haritayı değiştirmek için: yaklaştırmak için siyah artı işaretli yeşil düğmeye ve uzaklaştırmak için de eksi işaretli düğmeye hızla tıklayın; bitişik haritalar için yeşil okları kullanın.


METAR-TAF: